Time;durP1;ratioP1;P1;durP2;ratioP2;P2;SDS_P1;SDS_P2;PMS_P1;PMS_P2;Temp;Humidity;BMP_temperature;BMP_pressure;BME280_temperature;BME280_humidity;BME280_pressure;Samples;Min_cycle;Max_cycle;Signal;HPM_P1;HPM_P2
2023/09/29 00:01:41;;;;;;;9.18;4.03;;;11.30;99.90;;;;;;4897549;29;20044;-63
2023/09/29 00:04:08;;;;;;;9.30;4.78;;;11.30;99.90;;;;;;4888535;29;20425;-63
2023/09/29 00:06:35;;;;;;;14.15;4.57;;;11.30;99.90;;;;;;4890468;29;20135;-64
2023/09/29 00:09:12;;;;;;;10.77;4.65;;;11.30;99.90;;;;;;4894665;29;20063;-64
2023/09/29 00:11:39;;;;;;;10.80;4.85;;;11.30;99.90;;;;;;4883165;29;20037;-64
2023/09/29 00:14:06;;;;;;;11.13;5.38;;;11.40;99.90;;;;;;4883454;29;20049;-64
2023/09/29 00:16:33;;;;;;;8.75;5.05;;;11.40;99.90;;;;;;4892032;29;20525;-64
2023/09/29 00:19:00;;;;;;;8.80;4.85;;;11.40;99.90;;;;;;4895725;29;20132;-64
2023/09/29 00:21:26;;;;;;;8.77;4.10;;;11.40;99.90;;;;;;4888670;29;20048;-64
2023/09/29 00:23:53;;;;;;;13.52;4.40;;;11.40;99.90;;;;;;4888937;29;20045;-64
2023/09/29 00:26:20;;;;;;;11.95;4.72;;;11.30;99.90;;;;;;4894210;29;20049;-61
2023/09/29 00:28:49;;;;;;;8.98;4.22;;;11.50;99.90;;;;;;4873353;29;20037;-64
2023/09/29 00:31:16;;;;;;;9.45;4.28;;;11.30;99.90;;;;;;4869883;29;20049;-64
2023/09/29 00:33:43;;;;;;;7.88;3.63;;;11.30;99.90;;;;;;4878084;29;20048;-64
2023/09/29 00:36:11;;;;;;;6.90;3.80;;;11.30;99.90;;;;;;4879654;29;20517;-64
2023/09/29 00:38:38;;;;;;;9.05;3.90;;;11.20;99.90;;;;;;4871400;29;20059;-64
2023/09/29 00:41:05;;;;;;;7.63;4.22;;;11.20;99.90;;;;;;4889293;29;20037;-64
2023/09/29 00:43:33;;;;;;;7.45;3.72;;;11.20;99.90;;;;;;4894063;29;20044;-64
2023/09/29 00:46:00;;;;;;;6.88;4.30;;;11.10;99.90;;;;;;4896444;29;20037;-64
2023/09/29 00:48:30;;;;;;;8.90;5.22;;;11.00;99.90;;;;;;4879114;29;20049;-64
2023/09/29 00:50:57;;;;;;;7.05;4.22;;;10.90;99.90;;;;;;4878415;29;20058;-63
2023/09/29 00:53:24;;;;;;;10.25;5.00;;;10.90;99.90;;;;;;4895970;29;20047;-64
2023/09/29 00:55:52;;;;;;;7.70;4.30;;;10.90;99.90;;;;;;4896364;29;20036;-64
2023/09/29 00:58:19;;;;;;;8.10;3.95;;;10.80;99.90;;;;;;4886887;29;20045;-64
2023/09/29 01:00:46;;;;;;;8.65;4.00;;;10.70;99.90;;;;;;4888993;29;20067;-63
2023/09/29 01:03:18;;;;;;;7.72;4.45;;;10.60;99.90;;;;;;4895063;29;20553;-62
2023/09/29 01:05:47;;;;;;;8.45;4.38;;;10.60;99.90;;;;;;4874438;29;20433;-64
2023/09/29 01:08:20;;;;;;;8.10;4.57;;;10.60;99.90;;;;;;4884341;29;20052;-64
2023/09/29 01:10:48;;;;;;;8.68;3.70;;;10.50;99.90;;;;;;4876660;29;20083;-64
2023/09/29 01:13:16;;;;;;;7.63;3.80;;;10.50;99.90;;;;;;4870783;29;20144;-64
2023/09/29 01:15:43;;;;;;;6.35;3.50;;;10.50;99.90;;;;;;4889233;29;20048;-64
2023/09/29 01:18:09;;;;;;;8.63;3.60;;;10.50;99.90;;;;;;4887799;29;20044;-64
2023/09/29 01:20:40;;;;;;;5.32;3.33;;;10.50;99.90;;;;;;4878899;29;20179;-64
2023/09/29 01:23:08;;;;;;;9.35;4.22;;;10.50;99.90;;;;;;4896334;29;20425;-64
2023/09/29 01:25:35;;;;;;;6.45;3.47;;;10.50;99.90;;;;;;4886841;29;20056;-64
2023/09/29 01:28:05;;;;;;;6.50;3.28;;;10.40;99.90;;;;;;4891256;29;20475;-64
2023/09/29 01:30:33;;;;;;;8.68;3.80;;;10.40;99.90;;;;;;4875436;29;20041;-64
2023/09/29 01:33:00;;;;;;;5.93;3.97;;;10.40;99.90;;;;;;4884683;29;20056;-64
2023/09/29 01:35:28;;;;;;;7.93;3.65;;;10.50;99.90;;;;;;4880692;29;20421;-64
2023/09/29 01:37:59;;;;;;;6.40;3.80;;;10.50;99.90;;;;;;4872628;29;20131;-64
2023/09/29 01:40:27;;;;;;;7.70;3.97;;;10.60;99.90;;;;;;4881569;29;20564;-64
2023/09/29 01:42:56;;;;;;;5.00;3.40;;;10.60;99.90;;;;;;4873384;29;20081;-64
2023/09/29 01:45:23;;;;;;;5.53;3.28;;;10.60;99.90;;;;;;4878682;29;20063;-64
2023/09/29 01:47:51;;;;;;;7.38;3.80;;;10.60;99.90;;;;;;4877161;29;20472;-64
2023/09/29 01:50:22;;;;;;;7.03;3.72;;;10.60;99.90;;;;;;4895683;29;20125;-64
2023/09/29 01:52:50;;;;;;;8.50;3.80;;;10.60;99.90;;;;;;4879079;29;20037;-64
2023/09/29 01:55:23;;;;;;;7.70;3.58;;;10.50;99.90;;;;;;4878819;29;20135;-64
2023/09/29 01:57:54;;;;;;;6.82;3.42;;;10.50;99.90;;;;;;4875353;29;20053;-64
2023/09/29 02:00:25;;;;;;;7.95;3.35;;;10.50;99.90;;;;;;4890574;29;20499;-64
2023/09/29 02:02:54;;;;;;;7.55;3.65;;;10.40;99.90;;;;;;4889379;29;20046;-64
2023/09/29 02:05:22;;;;;;;7.40;4.22;;;10.40;99.90;;;;;;4883924;29;20048;-64
2023/09/29 02:07:50;;;;;;;6.47;3.85;;;10.30;99.90;;;;;;4890799;29;20064;-64
2023/09/29 02:10:20;;;;;;;;;;;10.10;99.90;;;;;;4876825;29;20041;-64
2023/09/29 02:12:58;;;;;;;7.93;4.25;;;10.10;99.90;;;;;;4871100;29;20456;-64
2023/09/29 02:15:27;;;;;;;5.70;3.50;;;10.10;99.90;;;;;;4876810;29;20485;-64
2023/09/29 02:17:54;;;;;;;10.68;3.75;;;10.10;99.90;;;;;;4874266;29;20049;-64
2023/09/29 02:20:25;;;;;;;7.05;3.60;;;10.10;99.90;;;;;;4891632;29;20045;-64
2023/09/29 02:22:55;;;;;;;11.60;4.03;;;10.10;99.90;;;;;;4873786;29;20500;-64
2023/09/29 02:25:25;;;;;;;7.47;3.85;;;10.10;99.90;;;;;;4875603;29;20550;-64
2023/09/29 02:27:54;;;;;;;10.07;3.47;;;10.10;99.90;;;;;;4871510;29;20048;-64
2023/09/29 02:30:20;;;;;;;6.68;3.90;;;10.10;99.90;;;;;;4870721;29;20116;-64
2023/09/29 02:32:48;;;;;;;7.78;3.78;;;10.00;99.90;;;;;;4889369;29;20390;-64
2023/09/29 02:35:15;;;;;;;5.93;3.75;;;10.00;99.90;;;;;;4877294;29;20041;-64
2023/09/29 02:37:42;;;;;;;8.93;3.80;;;10.00;99.90;;;;;;4882406;29;20105;-64
2023/09/29 02:40:13;;;;;;;7.97;4.05;;;9.90;99.90;;;;;;4873710;29;20056;-64
2023/09/29 02:42:40;;;;;;;8.18;4.07;;;9.90;99.90;;;;;;4866918;29;20048;-64
2023/09/29 02:45:07;;;;;;;;;;;9.90;99.90;;;;;;4875043;29;20258;-64
2023/09/29 02:47:41;;;;;;;7.70;3.65;;;9.90;99.90;;;;;;4893220;29;20332;-64
2023/09/29 02:50:09;;;;;;;11.07;3.88;;;9.90;99.90;;;;;;4892337;29;20108;-64
2023/09/29 02:52:38;;;;;;;8.40;4.03;;;10.00;99.90;;;;;;4890831;29;20041;-64
2023/09/29 02:55:06;;;;;;;8.98;4.15;;;10.00;99.90;;;;;;4878777;29;20125;-64
2023/09/29 02:57:33;;;;;;;9.75;3.88;;;10.00;99.90;;;;;;4887059;29;20071;-64
2023/09/29 03:00:00;;;;;;;8.85;3.92;;;10.00;99.90;;;;;;4897261;29;20516;-64
2023/09/29 03:02:27;;;;;;;11.65;3.28;;;9.90;99.90;;;;;;4878189;29;20084;-64
2023/09/29 03:04:54;;;;;;;9.52;4.07;;;10.00;99.90;;;;;;4873887;29;20044;-64
2023/09/29 03:07:20;;;;;;;7.80;3.80;;;9.90;99.90;;;;;;4888728;29;20049;-64
2023/09/29 03:09:48;;;;;;;8.25;3.72;;;9.90;99.90;;;;;;4887336;29;20045;-64
2023/09/29 03:12:17;;;;;;;6.43;3.70;;;9.90;99.90;;;;;;4877593;29;20037;-64
2023/09/29 03:14:43;;;;;;;7.40;3.75;;;10.00;99.90;;;;;;4880054;29;20055;-64
2023/09/29 03:17:10;;;;;;;5.47;3.22;;;10.00;99.90;;;;;;4898026;29;20128;-64
2023/09/29 03:19:37;;;;;;;7.30;4.00;;;9.90;99.90;;;;;;4887840;29;20387;-64
2023/09/29 03:22:04;;;;;;;8.00;4.32;;;9.90;99.90;;;;;;4876048;29;20055;-64
2023/09/29 03:24:34;;;;;;;8.23;4.10;;;9.90;99.90;;;;;;4888838;29;20045;-64
2023/09/29 03:27:01;;;;;;;7.57;3.60;;;9.90;99.90;;;;;;4891907;29;20135;-63
2023/09/29 03:29:27;;;;;;;7.38;3.72;;;9.90;99.90;;;;;;4889810;29;20045;-64
2023/09/29 03:31:54;;;;;;;6.40;3.42;;;9.90;99.90;;;;;;4900846;29;20072;-64
2023/09/29 03:34:23;;;;;;;8.10;3.50;;;9.90;99.90;;;;;;4888103;29;20045;-63
2023/09/29 03:36:50;;;;;;;6.88;4.10;;;9.80;99.90;;;;;;4882239;29;20032;-63
2023/09/29 03:39:18;;;;;;;9.45;3.83;;;9.70;99.90;;;;;;4895169;29;20053;-64
2023/09/29 03:41:45;;;;;;;9.07;4.03;;;9.70;99.90;;;;;;4896722;29;20040;-63
2023/09/29 03:44:12;;;;;;;6.70;3.83;;;9.60;99.90;;;;;;4898064;29;20047;-64
2023/09/29 03:46:39;;;;;;;9.10;3.90;;;9.60;99.90;;;;;;4897904;29;20390;-63
2023/09/29 03:49:06;;;;;;;6.53;4.13;;;9.50;99.90;;;;;;4896429;29;20465;-63
2023/09/29 03:51:33;;;;;;;6.53;3.83;;;9.50;99.90;;;;;;4889560;29;20590;-63
2023/09/29 03:54:00;;;;;;;;;;;9.50;99.90;;;;;;4887372;29;20045;-64
2023/09/29 03:56:27;;;;;;;6.43;3.63;;;9.50;99.90;;;;;;4894027;29;20325;-63
2023/09/29 03:58:55;;;;;;;6.68;3.90;;;9.50;99.90;;;;;;4892120;29;20578;-64
2023/09/29 04:01:22;;;;;;;9.45;4.18;;;9.60;99.90;;;;;;4890480;29;20124;-63
2023/09/29 04:03:49;;;;;;;9.02;3.97;;;9.60;99.90;;;;;;4889496;29;20048;-64
2023/09/29 04:06:16;;;;;;;10.20;4.20;;;9.60;99.90;;;;;;4884147;29;20448;-63
2023/09/29 04:08:44;;;;;;;9.93;4.47;;;9.60;99.90;;;;;;4888638;29;20450;-64
2023/09/29 04:11:10;;;;;;;8.73;3.40;;;9.50;99.90;;;;;;4898867;29;20053;-64
2023/09/29 04:13:37;;;;;;;8.32;4.20;;;9.50;99.90;;;;;;4889853;29;20546;-64
2023/09/29 04:16:08;;;;;;;7.53;3.95;;;9.40;99.90;;;;;;4889701;29;20068;-62
2023/09/29 04:18:35;;;;;;;10.50;4.15;;;9.40;99.90;;;;;;4888072;29;20128;-63
2023/09/29 04:21:02;;;;;;;9.82;3.92;;;9.30;99.90;;;;;;4870176;29;20041;-63
2023/09/29 04:23:29;;;;;;;11.43;3.78;;;9.30;99.90;;;;;;4886658;29;20049;-63
2023/09/29 04:25:56;;;;;;;8.93;3.47;;;9.30;99.90;;;;;;4896561;29;20048;-63
2023/09/29 04:28:23;;;;;;;6.28;3.50;;;9.30;99.90;;;;;;4897024;29;20055;-63
2023/09/29 04:30:49;;;;;;;10.48;4.43;;;9.30;99.90;;;;;;4888721;29;20052;-64
2023/09/29 04:33:18;;;;;;;11.77;4.90;;;9.30;99.90;;;;;;4889308;29;20145;-64
2023/09/29 04:35:45;;;;;;;12.18;4.85;;;9.30;99.90;;;;;;4888377;29;20514;-63
2023/09/29 04:38:12;;;;;;;8.75;4.22;;;9.30;99.90;;;;;;4895020;29;20044;-63
2023/09/29 04:40:39;;;;;;;6.53;3.75;;;9.20;99.90;;;;;;4896353;29;20051;-63
2023/09/29 04:43:06;;;;;;;;;;;9.20;99.90;;;;;;4895344;29;20044;-64
2023/09/29 04:45:33;;;;;;;10.02;4.57;;;9.10;99.90;;;;;;4888834;29;19924;-64
2023/09/29 04:48:02;;;;;;;8.32;4.00;;;9.10;99.90;;;;;;4892710;29;20115;-64
2023/09/29 04:50:29;;;;;;;7.20;4.32;;;9.00;99.90;;;;;;4887255;29;20521;-64
2023/09/29 04:52:56;;;;;;;9.20;4.97;;;9.00;99.90;;;;;;4889196;29;20047;-64
2023/09/29 04:55:23;;;;;;;8.25;4.38;;;9.00;99.90;;;;;;4895087;29;20055;-64
2023/09/29 04:57:52;;;;;;;7.72;4.13;;;9.10;99.90;;;;;;4893533;29;20048;-64
2023/09/29 05:00:19;;;;;;;9.95;4.20;;;9.10;99.90;;;;;;4885242;29;20057;-64
2023/09/29 05:02:47;;;;;;;8.35;4.13;;;9.20;99.90;;;;;;4893554;29;20040;-64
2023/09/29 05:05:14;;;;;;;7.65;4.50;;;9.20;99.90;;;;;;4884517;29;20076;-63
2023/09/29 05:07:43;;;;;;;8.65;4.45;;;9.20;99.90;;;;;;4893504;29;20044;-64
2023/09/29 05:10:16;;;;;;;10.80;4.25;;;9.20;99.90;;;;;;4892705;29;20562;-64
2023/09/29 05:12:46;;;;;;;10.50;4.10;;;9.20;99.90;;;;;;4894349;29;20044;-64
2023/09/29 05:15:13;;;;;;;7.30;3.58;;;9.20;99.90;;;;;;4889643;29;20414;-63
2023/09/29 05:17:40;;;;;;;6.35;3.75;;;9.20;99.90;;;;;;4895551;29;20060;-64
2023/09/29 05:20:18;;;;;;;6.78;3.67;;;9.20;99.90;;;;;;4891963;29;20055;-64
2023/09/29 05:22:45;;;;;;;9.55;3.88;;;9.20;99.90;;;;;;4896300;29;20053;-63
2023/09/29 05:25:12;;;;;;;8.07;3.50;;;9.20;99.90;;;;;;4896026;29;20049;-64
2023/09/29 05:27:39;;;;;;;8.18;3.63;;;9.20;99.90;;;;;;4894699;29;20781;-64
2023/09/29 05:30:06;;;;;;;7.90;3.90;;;9.20;99.90;;;;;;4894769;29;20048;-64
2023/09/29 05:32:33;;;;;;;10.00;4.30;;;9.20;99.90;;;;;;4895832;29;20050;-64
2023/09/29 05:35:00;;;;;;;8.45;3.65;;;9.10;99.90;;;;;;4885268;29;20048;-64
2023/09/29 05:37:27;;;;;;;8.95;4.32;;;9.10;99.90;;;;;;4894712;29;20045;-63
2023/09/29 05:39:54;;;;;;;10.00;4.20;;;9.20;99.90;;;;;;4892732;29;20135;-64
2023/09/29 05:42:21;;;;;;;7.63;4.45;;;9.20;99.90;;;;;;4892012;29;20048;-61
2023/09/29 05:45:03;;;;;;;6.75;4.15;;;9.20;99.90;;;;;;4888412;29;20051;-64
2023/09/29 05:47:31;;;;;;;7.95;4.70;;;9.20;99.90;;;;;;4893662;29;20136;-65
2023/09/29 05:49:57;;;;;;;7.78;3.75;;;9.20;99.90;;;;;;4892336;29;20101;-64
2023/09/29 05:52:42;;;;;;;7.93;4.03;;;9.20;99.90;;;;;;4892197;29;20418;-64
2023/09/29 05:55:25;;;;;;;11.23;5.13;;;9.10;99.90;;;;;;4889001;29;20049;-63
2023/09/29 05:57:52;;;;;;;7.72;4.30;;;9.20;99.90;;;;;;4888978;29;20093;-63
2023/09/29 06:00:20;;;;;;;7.90;4.65;;;9.20;99.90;;;;;;4895643;29;20054;-64
2023/09/29 06:02:46;;;;;;;;;;;9.20;99.90;;;;;;4886165;29;20446;-64
2023/09/29 06:05:14;;;;;;;9.70;3.80;;;9.20;99.90;;;;;;4884855;29;19924;-63
2023/09/29 06:07:41;;;;;;;7.63;4.07;;;9.20;99.90;;;;;;4891756;29;20129;-63
2023/09/29 06:10:08;;;;;;;9.38;4.32;;;9.30;99.90;;;;;;4888070;29;20040;-64
2023/09/29 06:12:35;;;;;;;10.30;4.20;;;9.30;99.90;;;;;;4888129;29;20070;-64
2023/09/29 06:15:02;;;;;;;6.95;3.92;;;9.30;99.90;;;;;;4888907;29;20041;-64
2023/09/29 06:17:29;;;;;;;9.38;4.68;;;9.30;99.90;;;;;;4888549;29;20140;-63
2023/09/29 06:19:57;;;;;;;8.63;4.78;;;9.30;99.90;;;;;;4884380;29;20397;-64
2023/09/29 06:22:24;;;;;;;7.43;4.55;;;9.30;99.90;;;;;;4891747;29;20063;-64
2023/09/29 06:24:51;;;;;;;7.78;4.75;;;9.30;99.90;;;;;;4896690;29;20051;-64
2023/09/29 06:27:18;;;;;;;9.95;5.20;;;9.30;99.90;;;;;;4897580;29;20125;-63
2023/09/29 06:29:46;;;;;;;11.52;5.13;;;9.40;99.90;;;;;;4889363;29;20053;-63
2023/09/29 06:32:13;;;;;;;9.80;5.75;;;9.50;99.90;;;;;;4889844;29;20048;-64
2023/09/29 06:34:40;;;;;;;10.32;4.05;;;9.60;99.90;;;;;;4889699;29;20417;-63
2023/09/29 06:37:08;;;;;;;11.80;5.20;;;9.60;99.90;;;;;;4881929;29;20407;-64
2023/09/29 06:39:36;;;;;;;9.20;3.63;;;9.70;99.90;;;;;;4896841;29;20060;-62
2023/09/29 06:42:03;;;;;;;;;;;9.80;99.90;;;;;;4887677;29;20083;-64
2023/09/29 06:44:32;;;;;;;8.93;4.47;;;9.80;99.90;;;;;;4887887;29;19961;-64
2023/09/29 06:46:59;;;;;;;7.45;3.92;;;9.90;99.90;;;;;;4889353;29;20049;-64
2023/09/29 06:49:25;;;;;;;8.50;4.35;;;9.90;99.90;;;;;;4889249;29;20041;-64
2023/09/29 06:51:52;;;;;;;10.05;4.75;;;10.00;99.90;;;;;;4898626;29;20048;-64
2023/09/29 06:54:19;;;;;;;13.23;4.78;;;10.10;99.90;;;;;;4890689;29;20052;-64
2023/09/29 06:56:46;;;;;;;11.23;4.72;;;10.20;99.90;;;;;;4890214;29;20100;-64
2023/09/29 06:59:13;;;;;;;12.80;5.10;;;10.40;99.90;;;;;;4888069;29;20049;-64
2023/09/29 07:01:40;;;;;;;11.30;4.85;;;10.60;99.90;;;;;;4890942;29;20566;-64
2023/09/29 07:04:07;;;;;;;10.50;4.68;;;10.80;99.90;;;;;;4887453;29;20109;-64
2023/09/29 07:06:36;;;;;;;8.75;5.18;;;11.10;99.90;;;;;;4889580;29;20119;-64
2023/09/29 07:09:03;;;;;;;11.32;4.90;;;11.30;99.90;;;;;;4895461;29;20450;-64
2023/09/29 07:11:31;;;;;;;8.98;4.70;;;11.50;99.90;;;;;;4876430;29;20044;-64
2023/09/29 07:13:57;;;;;;;8.45;4.43;;;11.50;99.90;;;;;;4890447;29;20051;-64
2023/09/29 07:16:24;;;;;;;10.27;5.32;;;11.70;99.90;;;;;;4896938;29;20484;-64
2023/09/29 07:18:52;;;;;;;9.65;4.70;;;11.80;99.90;;;;;;4896763;29;20068;-64
2023/09/29 07:21:19;;;;;;;9.77;5.07;;;11.90;99.90;;;;;;4893557;29;20147;-64
2023/09/29 07:23:46;;;;;;;9.02;5.22;;;12.00;99.90;;;;;;4897429;29;20051;-64
2023/09/29 07:26:13;;;;;;;11.02;5.50;;;12.10;99.90;;;;;;4890135;29;20051;-64
2023/09/29 07:28:40;;;;;;;11.63;5.35;;;12.20;99.90;;;;;;4883160;29;20052;-63
2023/09/29 07:31:07;;;;;;;14.20;5.88;;;12.40;99.90;;;;;;4897281;29;20045;-64
2023/09/29 07:33:34;;;;;;;8.73;5.30;;;12.60;99.90;;;;;;4897177;29;20051;-63
2023/09/29 07:36:02;;;;;;;10.90;5.20;;;12.80;99.90;;;;;;4888202;29;20036;-64
2023/09/29 07:38:29;;;;;;;8.80;5.13;;;13.00;99.90;;;;;;4892211;29;20045;-64
2023/09/29 07:40:56;;;;;;;7.78;5.13;;;13.20;99.90;;;;;;4896640;29;20490;-64
2023/09/29 07:43:22;;;;;;;10.23;5.18;;;13.40;99.90;;;;;;4890310;29;20048;-64
2023/09/29 07:45:49;;;;;;;9.73;5.40;;;13.50;99.90;;;;;;4897181;29;20041;-64
2023/09/29 07:48:16;;;;;;;10.43;5.38;;;13.80;99.90;;;;;;4885989;29;20045;-64
2023/09/29 07:50:43;;;;;;;12.43;5.32;;;13.90;99.90;;;;;;4886152;29;20045;-65
2023/09/29 07:53:11;;;;;;;7.35;4.32;;;14.00;99.90;;;;;;4883015;29;20049;-64
2023/09/29 07:55:38;;;;;;;9.52;5.30;;;14.20;99.90;;;;;;4889575;29;20079;-64
2023/09/29 07:58:06;;;;;;;11.80;4.63;;;14.30;99.90;;;;;;4896230;29;20413;-65
2023/09/29 08:00:33;;;;;;;13.52;5.15;;;14.40;99.90;;;;;;4890354;29;20096;-65
2023/09/29 08:03:00;;;;;;;10.93;4.50;;;14.40;99.90;;;;;;4887214;29;20107;-64
2023/09/29 08:05:27;;;;;;;11.20;4.88;;;14.40;99.90;;;;;;4891007;29;20048;-65
2023/09/29 08:07:54;;;;;;;11.30;4.45;;;14.60;99.90;;;;;;4886419;29;20037;-65
2023/09/29 08:10:21;;;;;;;7.68;4.40;;;14.80;99.90;;;;;;4889963;29;20259;-64
2023/09/29 08:12:48;;;;;;;7.10;4.43;;;14.80;99.90;;;;;;4889741;29;20128;-64
2023/09/29 08:15:15;;;;;;;13.82;5.00;;;14.80;99.90;;;;;;4886271;29;20041;-65
2023/09/29 08:17:43;;;;;;;7.03;4.55;;;15.10;99.90;;;;;;4887040;29;20048;-65
2023/09/29 08:20:12;;;;;;;10.45;4.70;;;15.10;99.90;;;;;;4894376;29;20383;-65
2023/09/29 08:22:39;;;;;;;8.88;4.75;;;15.30;99.90;;;;;;4887895;29;20435;-64
2023/09/29 08:25:09;;;;;;;15.93;4.38;;;15.40;99.90;;;;;;4894561;29;20048;-65
2023/09/29 08:27:39;;;;;;;9.38;4.32;;;15.60;99.90;;;;;;4884607;29;20049;-65
2023/09/29 08:30:10;;;;;;;8.82;4.68;;;15.70;99.90;;;;;;4893030;29;20040;-65
2023/09/29 08:32:39;;;;;;;9.63;4.47;;;15.80;99.90;;;;;;4895260;29;20045;-65
2023/09/29 08:35:06;;;;;;;10.23;4.60;;;15.80;99.90;;;;;;4888712;29;20109;-64
2023/09/29 08:37:33;;;;;;;9.38;5.15;;;15.90;99.90;;;;;;4890982;29;20411;-65
2023/09/29 08:40:00;;;;;;;10.05;4.55;;;15.90;99.90;;;;;;4893755;29;20041;-65
2023/09/29 08:42:36;;;;;;;9.75;4.65;;;16.00;99.90;;;;;;4892642;29;20057;-65
2023/09/29 08:45:12;;;;;;;8.70;4.70;;;16.10;99.90;;;;;;4892612;29;20087;-64
2023/09/29 08:47:40;;;;;;;6.78;4.60;;;16.30;99.90;;;;;;4886026;29;20052;-65
2023/09/29 08:50:09;;;;;;;10.90;4.70;;;16.30;99.90;;;;;;4894866;29;20425;-64
2023/09/29 08:52:40;;;;;;;8.15;4.75;;;16.40;99.90;;;;;;4885857;29;20128;-65
2023/09/29 08:55:08;;;;;;;7.72;4.70;;;16.50;99.90;;;;;;4888478;29;20055;-65
2023/09/29 08:57:34;;;;;;;12.75;5.60;;;16.50;99.90;;;;;;4889005;29;20052;-65
2023/09/29 09:00:03;;;;;;;13.65;5.25;;;16.70;99.90;;;;;;4893710;29;20529;-65
2023/09/29 09:02:30;;;;;;;12.07;4.85;;;16.70;99.90;;;;;;4890199;29;20045;-65
2023/09/29 09:04:57;;;;;;;9.05;5.13;;;16.80;99.90;;;;;;4892377;29;20092;-65
2023/09/29 09:07:23;;;;;;;11.38;5.15;;;16.90;99.90;;;;;;4889304;29;20047;-65
2023/09/29 09:09:53;;;;;;;11.15;5.00;;;17.00;99.90;;;;;;4889295;29;20399;-65
2023/09/29 09:12:34;;;;;;;7.88;5.05;;;17.20;99.90;;;;;;4887806;29;20037;-65
2023/09/29 09:15:05;;;;;;;8.52;4.95;;;17.10;99.90;;;;;;4885830;29;20062;-65
2023/09/29 09:17:36;;;;;;;12.13;5.22;;;17.10;99.90;;;;;;4895786;29;20159;-65
2023/09/29 09:20:03;;;;;;;11.05;4.82;;;17.00;99.90;;;;;;4887155;29;20131;-65
2023/09/29 09:22:38;;;;;;;;;;;17.10;99.90;;;;;;4885736;29;20045;-65
2023/09/29 09:25:14;;;;;;;8.20;4.75;;;17.10;99.90;;;;;;4886725;29;20436;-65
2023/09/29 09:27:43;;;;;;;12.65;5.43;;;17.10;99.90;;;;;;4894343;29;20119;-65
2023/09/29 09:30:23;;;;;;;13.43;5.65;;;17.30;99.90;;;;;;4887879;29;20044;-65
2023/09/29 09:32:51;;;;;;;8.20;4.35;;;17.40;99.90;;;;;;4888415;29;20498;-65
2023/09/29 09:35:26;;;;;;;7.43;4.35;;;17.50;99.90;;;;;;4892205;29;20052;-65
2023/09/29 09:37:53;;;;;;;14.52;5.50;;;17.70;99.90;;;;;;4895494;29;20037;-65
2023/09/29 09:40:20;;;;;;;;;;;17.90;99.90;;;;;;4888038;29;20052;-65
2023/09/29 09:42:47;;;;;;;8.30;4.60;;;18.00;99.90;;;;;;4895924;29;19924;-65
2023/09/29 09:45:14;;;;;;;12.98;5.40;;;18.10;99.90;;;;;;4894646;29;20524;-65
2023/09/29 09:47:42;;;;;;;7.35;4.70;;;18.20;99.90;;;;;;4889968;29;20049;-65
2023/09/29 09:50:11;;;;;;;9.10;4.15;;;18.30;99.90;;;;;;4884652;29;20132;-65
2023/09/29 09:52:39;;;;;;;8.13;4.47;;;18.40;99.90;;;;;;4862807;29;20070;-65
2023/09/29 09:55:10;;;;;;;8.70;4.43;;;18.60;99.90;;;;;;4893789;29;20308;-65
2023/09/29 09:57:42;;;;;;;7.07;4.20;;;18.80;99.90;;;;;;4889849;29;20036;-65
2023/09/29 10:00:11;;;;;;;9.25;4.28;;;18.90;99.90;;;;;;4899804;29;20048;-65
2023/09/29 10:02:44;;;;;;;7.60;4.30;;;18.90;99.90;;;;;;4891030;29;20052;-65
2023/09/29 10:05:16;;;;;;;7.63;4.30;;;19.10;99.90;;;;;;4891644;29;20566;-64
2023/09/29 10:07:47;;;;;;;8.93;4.20;;;19.30;99.90;;;;;;4889301;29;20044;-65
2023/09/29 10:10:31;;;;;;;8.32;4.18;;;19.50;99.90;;;;;;4897656;29;20075;-65
2023/09/29 10:12:59;;;;;;;8.05;3.75;;;19.60;99.90;;;;;;4890604;29;20048;-65
2023/09/29 10:15:29;;;;;;;6.72;3.88;;;19.80;99.90;;;;;;4889787;29;20059;-65
2023/09/29 10:17:58;;;;;;;9.00;3.75;;;19.90;99.90;;;;;;4894945;29;20041;-65
2023/09/29 10:20:29;;;;;;;6.07;3.95;;;19.80;99.90;;;;;;4891268;29;20443;-65
2023/09/29 10:23:06;;;;;;;10.48;4.80;;;19.80;99.90;;;;;;4891566;29;20032;-65
2023/09/29 10:25:38;;;;;;;7.90;3.92;;;19.90;99.90;;;;;;4897557;29;20052;-65
2023/09/29 10:28:08;;;;;;;9.70;4.30;;;20.00;99.90;;;;;;4898567;29;20055;-66
2023/09/29 10:30:38;;;;;;;6.07;3.88;;;20.10;99.90;;;;;;4892019;29;20434;-65
2023/09/29 10:33:13;;;;;;;8.82;4.03;;;20.10;99.90;;;;;;4891287;29;20082;-65
2023/09/29 10:35:48;;;;;;;7.50;4.03;;;20.30;99.90;;;;;;4888263;29;20570;-65
2023/09/29 10:38:23;;;;;;;6.80;4.45;;;20.40;99.90;;;;;;4888842;29;20052;-65
2023/09/29 10:40:52;;;;;;;9.77;4.20;;;20.50;99.90;;;;;;4890001;29;20053;-65
2023/09/29 10:43:23;;;;;;;9.73;4.15;;;20.50;99.90;;;;;;4898760;29;20431;-65
2023/09/29 10:45:51;;;;;;;8.95;3.88;;;20.60;99.90;;;;;;4890853;29;20041;-65
2023/09/29 10:48:21;;;;;;;6.82;3.85;;;20.70;99.90;;;;;;4888663;29;20460;-65
2023/09/29 10:50:50;;;;;;;7.18;4.10;;;20.70;99.90;;;;;;4893038;29;20096;-65
2023/09/29 10:53:21;;;;;;;7.85;4.13;;;20.70;99.90;;;;;;4890013;29;20446;-65
2023/09/29 10:55:51;;;;;;;7.75;4.05;;;20.90;99.90;;;;;;4898869;29;20547;-65
2023/09/29 10:58:19;;;;;;;5.45;3.50;;;21.00;99.90;;;;;;4888408;29;20041;-65
2023/09/29 11:00:50;;;;;;;7.82;4.22;;;21.10;99.90;;;;;;4888183;29;20047;-64
2023/09/29 11:03:20;;;;;;;9.35;4.18;;;21.30;99.90;;;;;;4895709;29;20049;-65
2023/09/29 11:05:50;;;;;;;6.95;4.07;;;21.40;99.90;;;;;;4876331;29;20064;-65
2023/09/29 11:08:22;;;;;;;7.20;4.43;;;21.50;99.90;;;;;;4886900;29;20095;-65
2023/09/29 11:11:05;;;;;;;9.38;4.13;;;21.50;99.90;;;;;;4895242;29;20040;-65
2023/09/29 11:13:32;;;;;;;10.05;4.38;;;21.50;99.90;;;;;;4903157;29;20064;-65
2023/09/29 11:16:00;;;;;;;7.10;4.20;;;21.50;99.90;;;;;;4890401;29;20040;-65
2023/09/29 11:18:27;;;;;;;7.18;4.43;;;21.70;99.90;;;;;;4880671;29;20056;-65
2023/09/29 11:20:55;;;;;;;9.85;3.90;;;21.80;99.90;;;;;;4879766;29;20049;-65
2023/09/29 11:23:21;;;;;;;;;;;21.90;99.90;;;;;;4888896;29;20128;-65
2023/09/29 11:26:02;;;;;;;8.55;4.22;;;21.90;99.90;;;;;;4898125;29;19934;-65
2023/09/29 11:28:30;;;;;;;11.07;4.32;;;22.10;99.90;;;;;;4896240;29;20056;-65
2023/09/29 11:30:56;;;;;;;6.32;4.05;;;22.20;99.90;;;;;;4891656;29;20128;-65
2023/09/29 11:33:25;;;;;;;9.02;4.25;;;22.10;99.90;;;;;;4888602;29;20059;-65
2023/09/29 11:35:52;;;;;;;7.68;4.28;;;22.10;99.90;;;;;;4896160;29;20442;-65
2023/09/29 11:38:33;;;;;;;10.88;4.15;;;22.10;99.90;;;;;;4896724;29;20044;-65
2023/09/29 11:41:00;;;;;;;9.30;4.00;;;22.20;99.90;;;;;;4907898;29;20058;-65
2023/09/29 11:43:27;;;;;;;9.52;4.22;;;22.30;99.90;;;;;;4888538;29;20047;-65
2023/09/29 11:45:55;;;;;;;7.85;4.45;;;22.40;99.90;;;;;;4893448;29;20044;-65
2023/09/29 11:48:22;;;;;;;5.30;3.85;;;22.30;99.90;;;;;;4894143;29;20045;-65
2023/09/29 11:50:49;;;;;;;;;;;22.20;99.90;;;;;;4891311;29;20075;-65
2023/09/29 11:53:16;;;;;;;6.95;4.10;;;22.30;99.90;;;;;;4884392;29;20289;-65
2023/09/29 11:55:43;;;;;;;7.82;4.38;;;22.50;99.90;;;;;;4896487;29;20101;-65
2023/09/29 11:58:09;;;;;;;7.82;4.00;;;22.60;99.90;;;;;;4895447;29;20486;-65
2023/09/29 12:00:36;;;;;;;7.03;4.20;;;22.60;99.90;;;;;;4887729;29;20049;-65
2023/09/29 12:03:05;;;;;;;6.03;4.22;;;22.70;99.90;;;;;;4885076;29;20518;-65
2023/09/29 12:05:34;;;;;;;8.52;3.92;;;22.70;99.90;;;;;;4888512;29;20080;-65
2023/09/29 12:08:05;;;;;;;6.32;3.80;;;22.60;99.90;;;;;;4889076;29;20049;-65
2023/09/29 12:10:32;;;;;;;;;;;22.70;99.90;;;;;;4888186;29;20052;-65
2023/09/29 12:12:59;;;;;;;7.70;3.80;;;22.70;99.90;;;;;;4897188;29;19923;-65
2023/09/29 12:15:26;;;;;;;9.15;4.00;;;22.70;99.90;;;;;;4890157;29;20297;-65
2023/09/29 12:17:53;;;;;;;;;;;22.70;99.90;;;;;;4891723;29;20045;-65
2023/09/29 12:20:21;;;;;;;5.68;3.70;;;22.70;99.90;;;;;;4886615;29;20397;-65
2023/09/29 12:22:50;;;;;;;10.18;4.50;;;22.70;99.90;;;;;;4879090;29;20068;-65
2023/09/29 12:25:17;;;;;;;5.72;3.42;;;22.70;99.90;;;;;;4896898;29;20049;-65
2023/09/29 12:27:45;;;;;;;12.40;4.32;;;22.70;99.90;;;;;;4888897;29;20046;-65
2023/09/29 12:30:12;;;;;;;7.05;4.35;;;22.70;99.90;;;;;;4889227;29;20104;-65
2023/09/29 12:32:40;;;;;;;5.25;3.92;;;22.80;99.90;;;;;;4888878;29;20040;-65
2023/09/29 12:35:09;;;;;;;8.45;4.10;;;22.80;99.90;;;;;;4896730;29;20051;-65
2023/09/29 12:37:37;;;;;;;5.95;3.67;;;22.90;99.90;;;;;;4885587;29;20480;-65
2023/09/29 12:40:09;;;;;;;8.30;3.78;;;23.00;99.90;;;;;;4892192;29;20044;-65
2023/09/29 12:42:36;;;;;;;5.38;4.18;;;23.00;99.90;;;;;;4895548;29;20135;-65
2023/09/29 12:45:03;;;;;;;9.00;4.68;;;23.20;99.90;;;;;;4890541;29;20053;-65
2023/09/29 12:47:30;;;;;;;7.90;4.28;;;23.20;99.90;;;;;;4886728;29;20048;-65
2023/09/29 12:49:57;;;;;;;5.75;4.18;;;23.10;99.90;;;;;;4888241;29;20073;-65
2023/09/29 12:52:24;;;;;;;5.60;3.97;;;23.10;99.90;;;;;;4895275;29;20518;-65
2023/09/29 12:54:51;;;;;;;;;;;23.40;99.90;;;;;;4896920;29;20041;-65
2023/09/29 12:57:21;;;;;;;8.82;3.90;;;23.50;99.90;;;;;;4888151;29;19980;-65